createdAt,value
2023-03-30T00:01:28.246Z,6.50
2023-03-30T00:03:56.854Z,6.50
2023-03-30T00:06:26.660Z,6.60
2023-03-30T00:08:57.541Z,6.60
2023-03-30T00:11:26.983Z,6.70
2023-03-30T00:13:55.558Z,6.70
2023-03-30T00:16:23.690Z,6.70
2023-03-30T00:18:52.081Z,6.70
2023-03-30T00:21:21.436Z,6.70
2023-03-30T00:23:52.564Z,6.70
2023-03-30T00:26:21.496Z,6.70
2023-03-30T00:28:50.886Z,6.60
2023-03-30T00:31:19.683Z,6.50
2023-03-30T00:33:48.180Z,6.40
2023-03-30T00:36:17.146Z,6.30
2023-03-30T00:38:46.443Z,6.20
2023-03-30T00:41:15.982Z,6.10
2023-03-30T00:44:34.830Z,6.00
2023-03-30T00:47:04.190Z,6.00
2023-03-30T00:49:35.081Z,6.10
2023-03-30T00:52:03.693Z,6.20
2023-03-30T00:54:31.884Z,6.20
2023-03-30T00:57:00.669Z,6.20
2023-03-30T00:59:28.834Z,6.20
2023-03-30T01:01:57.658Z,6.20
2023-03-30T01:04:26.146Z,6.10
2023-03-30T01:06:58.152Z,6.00
2023-03-30T01:09:27.661Z,6.00
2023-03-30T01:11:56.608Z,6.00
2023-03-30T01:14:26.419Z,6.00
2023-03-30T01:17:04.847Z,5.90
2023-03-30T01:20:00.059Z,5.90
2023-03-30T01:22:34.963Z,5.80
2023-03-30T01:25:15.465Z,5.80
2023-03-30T01:28:04.709Z,5.80
2023-03-30T01:30:36.535Z,5.90
2023-03-30T01:33:13.316Z,5.80
2023-03-30T01:35:53.741Z,5.70
2023-03-30T01:38:59.352Z,5.60
2023-03-30T01:41:43.165Z,5.50
2023-03-30T01:44:42.443Z,5.50
2023-03-30T01:47:28.082Z,5.30
2023-03-30T01:50:03.429Z,5.10
2023-03-30T01:53:04.974Z,5.10
2023-03-30T01:55:38.328Z,5.00
2023-03-30T01:58:16.118Z,5.10
2023-03-30T02:00:50.331Z,5.00
2023-03-30T02:03:28.649Z,5.10
2023-03-30T02:06:04.546Z,5.10
2023-03-30T02:08:37.230Z,5.10
2023-03-30T02:11:06.215Z,5.20
2023-03-30T02:13:38.417Z,5.20
2023-03-30T02:16:22.806Z,5.20
2023-03-30T02:18:51.680Z,5.10
2023-03-30T02:21:19.845Z,5.10
2023-03-30T02:23:48.500Z,5.00
2023-03-30T02:26:17.070Z,5.00
2023-03-30T02:28:46.642Z,5.00
2023-03-30T02:31:17.096Z,5.00
2023-03-30T02:33:57.190Z,5.00
2023-03-30T02:36:37.705Z,5.10
2023-03-30T02:39:35.903Z,5.20
2023-03-30T02:42:24.305Z,5.20
2023-03-30T02:45:11.834Z,5.20
2023-03-30T02:47:43.051Z,5.30
2023-03-30T02:50:57.444Z,5.20
2023-03-30T02:54:19.693Z,5.10
2023-03-30T02:57:30.318Z,5.00
2023-03-30T03:00:28.368Z,5.10
2023-03-30T03:03:05.272Z,5.20
2023-03-30T03:05:35.773Z,5.20
2023-03-30T03:08:19.126Z,5.10
2023-03-30T03:10:50.501Z,5.10
2023-03-30T03:13:20.993Z,5.20
2023-03-30T03:15:53.033Z,5.30
2023-03-30T03:18:26.447Z,5.30
2023-03-30T03:20:55.109Z,5.30
2023-03-30T03:23:25.108Z,5.40
2023-03-30T03:25:57.037Z,5.40
2023-03-30T03:28:25.439Z,5.30
2023-03-30T03:30:59.934Z,5.10
2023-03-30T03:33:28.529Z,5.10
2023-03-30T03:36:06.833Z,5.00
2023-03-30T03:38:38.437Z,5.00
2023-03-30T03:41:09.671Z,5.00
2023-03-30T03:43:39.449Z,5.00
2023-03-30T03:46:08.652Z,5.00
2023-03-30T03:48:39.289Z,4.90
2023-03-30T03:51:09.496Z,5.00
2023-03-30T03:53:38.841Z,5.00
2023-03-30T03:56:11.994Z,5.10
2023-03-30T03:58:40.241Z,5.10
2023-03-30T04:01:08.775Z,5.00
2023-03-30T04:03:37.774Z,5.10
2023-03-30T04:06:06.572Z,5.10
2023-03-30T04:08:35.018Z,5.20
2023-03-30T04:11:12.468Z,5.20
2023-03-30T04:13:58.993Z,5.20
2023-03-30T04:16:51.552Z,5.20
2023-03-30T04:19:36.532Z,5.20
2023-03-30T04:22:36.210Z,5.10
2023-03-30T04:25:29.439Z,5.00
2023-03-30T04:28:16.047Z,5.00
2023-03-30T04:31:05.582Z,5.00
2023-03-30T04:33:53.556Z,5.00
2023-03-30T04:36:50.883Z,5.10
2023-03-30T04:39:38.790Z,5.00
2023-03-30T04:42:30.754Z,5.10
2023-03-30T04:45:21.199Z,5.00
2023-03-30T04:48:08.122Z,4.90
2023-03-30T04:50:37.030Z,4.70
2023-03-30T04:53:24.392Z,4.50
2023-03-30T04:56:11.824Z,4.50
2023-03-30T04:59:18.818Z,4.60
2023-03-30T05:02:16.824Z,4.50
2023-03-30T05:05:37.105Z,4.50
2023-03-30T05:08:15.583Z,4.60
2023-03-30T05:11:05.307Z,4.50
2023-03-30T05:13:50.762Z,4.50
2023-03-30T05:16:37.669Z,4.60
2023-03-30T05:19:25.766Z,4.70
2023-03-30T05:22:11.929Z,4.90
2023-03-30T05:25:05.058Z,5.10
2023-03-30T05:28:01.496Z,5.20
2023-03-30T05:30:47.112Z,5.30
2023-03-30T05:33:41.437Z,5.40
2023-03-30T05:36:44.410Z,5.70
2023-03-30T05:39:35.145Z,6.10
2023-03-30T05:42:22.374Z,6.30
2023-03-30T05:45:08.569Z,5.90
2023-03-30T05:47:57.414Z,5.80
2023-03-30T05:50:45.186Z,5.70
2023-03-30T05:53:22.060Z,5.50
2023-03-30T05:56:07.587Z,5.40
2023-03-30T05:58:59.444Z,5.30
2023-03-30T06:01:47.688Z,5.50
2023-03-30T06:04:16.707Z,5.60
2023-03-30T06:06:46.122Z,5.80
2023-03-30T06:09:14.651Z,5.80
2023-03-30T06:11:43.425Z,6.00
2023-03-30T06:14:21.790Z,6.20
2023-03-30T06:17:14.470Z,6.50
2023-03-30T06:19:44.179Z,6.30
2023-03-30T06:22:12.437Z,6.30
2023-03-30T06:24:51.881Z,6.50
2023-03-30T06:27:23.062Z,6.70
2023-03-30T06:29:52.076Z,6.70
2023-03-30T06:32:45.354Z,7.10
2023-03-30T06:35:44.247Z,7.50
2023-03-30T06:38:39.036Z,7.60
2023-03-30T06:41:10.281Z,7.90
2023-03-30T06:43:41.228Z,8.00
2023-03-30T06:46:40.516Z,8.10
2023-03-30T06:49:09.753Z,8.20
2023-03-30T06:51:44.093Z,7.90
2023-03-30T06:54:13.095Z,8.00
2023-03-30T06:56:50.501Z,8.10
2023-03-30T06:59:19.265Z,8.20
2023-03-30T07:02:06.617Z,8.40
2023-03-30T07:04:53.000Z,8.50
2023-03-30T07:07:37.245Z,8.40
2023-03-30T07:10:10.640Z,8.20
2023-03-30T07:12:39.768Z,8.10
2023-03-30T07:15:09.612Z,8.10
2023-03-30T07:17:38.962Z,8.40
2023-03-30T07:20:08.662Z,8.60
2023-03-30T07:22:50.391Z,8.70
2023-03-30T07:25:18.662Z,8.90
2023-03-30T07:27:47.977Z,9.00
2023-03-30T07:30:21.924Z,9.30
2023-03-30T07:32:58.503Z,9.40
2023-03-30T07:35:27.795Z,9.30
2023-03-30T07:38:02.756Z,9.50
2023-03-30T07:40:35.699Z,9.60
2023-03-30T07:43:05.897Z,9.90
2023-03-30T07:45:34.368Z,10.20
2023-03-30T07:48:03.103Z,10.40
2023-03-30T07:50:31.640Z,10.60
2023-03-30T07:53:03.030Z,10.30
2023-03-30T07:55:31.493Z,10.50
2023-03-30T07:58:09.538Z,10.90
2023-03-30T08:00:37.718Z,11.50
2023-03-30T08:03:24.969Z,11.60
2023-03-30T08:05:59.659Z,11.70
2023-03-30T08:08:32.926Z,11.80
2023-03-30T08:11:01.799Z,11.70
2023-03-30T08:13:31.917Z,11.80
2023-03-30T08:16:00.356Z,11.90
2023-03-30T08:18:29.221Z,11.90
2023-03-30T08:21:00.770Z,12.00
2023-03-30T08:23:28.936Z,12.10
2023-03-30T08:25:58.386Z,12.20
2023-03-30T08:28:27.010Z,12.30
2023-03-30T08:30:55.471Z,12.30
2023-03-30T08:33:24.374Z,12.40
2023-03-30T08:35:52.641Z,12.60
2023-03-30T08:38:20.713Z,12.70
2023-03-30T08:40:50.216Z,12.90
2023-03-30T08:43:36.931Z,12.70
2023-03-30T08:46:05.710Z,12.40
2023-03-30T08:48:38.060Z,12.80
2023-03-30T08:51:20.635Z,13.00
2023-03-30T08:53:53.446Z,12.40
2023-03-30T08:56:32.146Z,12.80
2023-03-30T08:59:21.191Z,13.10
2023-03-30T09:01:58.533Z,14.10
2023-03-30T09:04:40.119Z,14.90
2023-03-30T09:07:17.522Z,15.40
2023-03-30T09:09:49.368Z,15.40
2023-03-30T09:12:46.218Z,15.60
2023-03-30T09:15:39.771Z,15.50
2023-03-30T09:18:27.493Z,15.40
2023-03-30T09:21:00.179Z,14.30
2023-03-30T09:23:31.520Z,14.20
2023-03-30T09:26:15.674Z,14.40
2023-03-30T09:29:00.561Z,15.10
2023-03-30T09:31:33.129Z,15.70
2023-03-30T09:34:22.531Z,15.20
2023-03-30T09:36:53.683Z,14.80
2023-03-30T09:39:24.991Z,15.60
2023-03-30T09:42:08.072Z,15.60
2023-03-30T09:44:38.004Z,16.30
2023-03-30T09:47:25.329Z,16.60
2023-03-30T09:49:58.393Z,15.80
2023-03-30T09:52:30.029Z,15.20
2023-03-30T09:55:18.362Z,15.10
2023-03-30T09:57:46.418Z,14.10
2023-03-30T10:00:24.816Z,14.00
2023-03-30T10:02:57.755Z,14.80
2023-03-30T10:05:27.688Z,15.30
2023-03-30T10:08:01.430Z,15.50
2023-03-30T10:10:31.827Z,15.10
2023-03-30T10:13:17.912Z,15.80
2023-03-30T10:15:52.121Z,16.50
2023-03-30T10:18:41.954Z,16.90
2023-03-30T10:21:19.935Z,16.40
2023-03-30T10:24:05.039Z,16.50
2023-03-30T10:26:35.834Z,16.00
2023-03-30T10:29:07.592Z,16.40
2023-03-30T10:31:38.062Z,16.30
2023-03-30T10:34:34.142Z,16.30
2023-03-30T10:37:06.828Z,15.90
2023-03-30T10:39:36.646Z,15.90
2023-03-30T10:42:07.554Z,15.80
2023-03-30T10:44:56.522Z,16.40
2023-03-30T10:47:58.777Z,16.80
2023-03-30T10:50:43.545Z,16.50
2023-03-30T10:53:40.124Z,16.30
2023-03-30T10:56:24.594Z,16.50
2023-03-30T10:59:08.014Z,16.60
2023-03-30T11:01:52.557Z,16.80
2023-03-30T11:04:39.179Z,16.90
2023-03-30T11:07:28.696Z,17.10
2023-03-30T11:10:03.348Z,15.80
2023-03-30T11:12:41.586Z,15.20
2023-03-30T11:15:17.648Z,15.10
2023-03-30T11:18:02.604Z,15.50
2023-03-30T11:20:43.957Z,16.10
2023-03-30T11:23:25.578Z,16.50
2023-03-30T11:26:04.434Z,16.40
2023-03-30T11:28:41.076Z,16.30
2023-03-30T11:31:30.690Z,16.20
2023-03-30T11:34:24.425Z,16.50
2023-03-30T11:36:58.677Z,16.60
2023-03-30T11:39:36.891Z,16.80
2023-03-30T11:42:34.422Z,16.70
2023-03-30T11:45:04.975Z,16.40
2023-03-30T11:47:55.589Z,16.30
2023-03-30T11:50:45.910Z,16.40
2023-03-30T11:53:34.146Z,16.30
2023-03-30T11:56:10.732Z,16.50
2023-03-30T11:59:01.648Z,16.40
2023-03-30T12:01:42.931Z,16.20
2023-03-30T12:04:19.480Z,16.30
2023-03-30T12:07:04.523Z,16.70
2023-03-30T12:09:36.546Z,17.10
2023-03-30T12:12:19.370Z,17.30
2023-03-30T12:14:56.977Z,17.10
2023-03-30T12:17:37.295Z,17.00
2023-03-30T12:20:36.397Z,17.40
2023-03-30T12:23:23.123Z,17.20
2023-03-30T12:26:13.919Z,17.40
2023-03-30T12:29:08.336Z,17.60
2023-03-30T12:32:05.135Z,17.60
2023-03-30T12:34:38.337Z,17.50
2023-03-30T12:37:13.845Z,17.50
2023-03-30T12:39:45.139Z,17.50
2023-03-30T12:42:26.579Z,17.60
2023-03-30T12:45:03.923Z,17.80
2023-03-30T12:48:10.096Z,18.10
2023-03-30T12:51:12.460Z,17.80
2023-03-30T12:54:01.504Z,17.90
2023-03-30T12:56:56.304Z,18.00
2023-03-30T12:59:51.214Z,17.80
2023-03-30T13:02:44.926Z,18.00
2023-03-30T13:05:38.745Z,18.30
2023-03-30T13:08:38.985Z,18.10
2023-03-30T13:11:20.332Z,17.80
2023-03-30T13:14:01.087Z,17.70
2023-03-30T13:16:50.665Z,17.60
2023-03-30T13:19:33.571Z,17.90
2023-03-30T13:22:13.947Z,18.20
2023-03-30T13:24:42.118Z,18.10
2023-03-30T13:27:19.335Z,18.20
2023-03-30T13:30:08.456Z,17.80
2023-03-30T13:32:48.509Z,17.90
2023-03-30T13:35:32.245Z,17.90
2023-03-30T13:38:06.407Z,18.00
2023-03-30T13:41:05.712Z,18.10
2023-03-30T13:43:51.707Z,18.20
2023-03-30T13:46:42.544Z,18.20
2023-03-30T13:49:29.375Z,18.00
2023-03-30T13:52:13.339Z,17.90
2023-03-30T13:54:43.161Z,18.10
2023-03-30T13:57:23.167Z,18.10
2023-03-30T13:59:58.344Z,17.80
2023-03-30T14:02:30.367Z,17.80
2023-03-30T14:05:21.730Z,17.80
2023-03-30T14:07:49.913Z,17.80
2023-03-30T14:10:21.254Z,17.80
2023-03-30T14:12:54.099Z,17.90
2023-03-30T14:15:38.885Z,17.90
2023-03-30T14:18:13.651Z,17.90
2023-03-30T14:21:01.208Z,17.90
2023-03-30T14:23:41.325Z,17.90
2023-03-30T14:26:25.369Z,18.00
2023-03-30T14:28:59.733Z,17.90
2023-03-30T14:31:27.934Z,17.80
2023-03-30T14:33:56.101Z,17.70
2023-03-30T14:36:24.675Z,17.80
2023-03-30T14:38:54.471Z,17.80
2023-03-30T14:41:27.814Z,17.60
2023-03-30T14:44:05.283Z,17.60
2023-03-30T14:46:46.969Z,17.60
2023-03-30T14:49:20.440Z,17.50
2023-03-30T14:51:52.080Z,17.60
2023-03-30T14:54:23.298Z,17.70
2023-03-30T14:57:01.953Z,17.80
2023-03-30T14:59:33.199Z,17.70
2023-03-30T15:02:02.665Z,17.60
2023-03-30T15:04:37.682Z,17.60
2023-03-30T15:07:05.887Z,17.70
2023-03-30T15:09:38.954Z,17.70
2023-03-30T15:12:07.236Z,17.80
2023-03-30T15:14:40.438Z,17.80
2023-03-30T15:17:16.887Z,17.50
2023-03-30T15:19:45.338Z,17.40
2023-03-30T15:22:18.299Z,17.50
2023-03-30T15:24:46.456Z,17.40
2023-03-30T15:27:17.236Z,17.40
2023-03-30T15:29:45.393Z,17.20
2023-03-30T15:32:20.577Z,17.10
2023-03-30T15:35:21.435Z,17.10
2023-03-30T15:37:59.319Z,17.30
2023-03-30T15:40:41.906Z,17.20
2023-03-30T15:43:13.891Z,17.20
2023-03-30T15:45:49.822Z,17.20
2023-03-30T15:48:26.103Z,17.10
2023-03-30T15:50:59.760Z,17.00
2023-03-30T15:53:41.258Z,16.90
2023-03-30T15:56:34.889Z,16.80
2023-03-30T15:59:03.194Z,16.70
2023-03-30T16:01:49.573Z,16.70
2023-03-30T16:04:19.564Z,16.60
2023-03-30T16:06:48.029Z,16.70
2023-03-30T16:09:17.126Z,16.70
2023-03-30T16:11:46.610Z,16.70
2023-03-30T16:14:18.357Z,16.60
2023-03-30T16:16:47.002Z,16.60
2023-03-30T16:19:18.234Z,16.60
2023-03-30T16:21:46.436Z,16.60
2023-03-30T16:24:14.450Z,16.50
2023-03-30T16:26:42.460Z,16.40
2023-03-30T16:29:23.277Z,16.40
2023-03-30T16:31:52.382Z,16.40
2023-03-30T16:34:22.120Z,16.50
2023-03-30T16:36:51.090Z,16.50
2023-03-30T16:39:27.785Z,16.60
2023-03-30T16:41:56.754Z,16.50
2023-03-30T16:44:25.696Z,16.50
2023-03-30T16:46:53.929Z,16.50
2023-03-30T16:49:26.420Z,16.30
2023-03-30T16:51:57.873Z,16.20
2023-03-30T16:56:57.820Z,16.00
2023-03-30T16:59:29.282Z,16.00
2023-03-30T17:01:58.002Z,15.90
2023-03-30T17:04:26.958Z,15.80
2023-03-30T17:06:55.524Z,15.70
2023-03-30T17:09:23.750Z,15.50
2023-03-30T17:11:52.632Z,15.40
2023-03-30T17:14:21.028Z,15.30
2023-03-30T17:16:49.189Z,15.30
2023-03-30T17:19:17.446Z,15.20
2023-03-30T17:21:46.380Z,15.10
2023-03-30T17:24:17.128Z,15.00
2023-03-30T17:26:46.357Z,14.90
2023-03-30T17:29:14.608Z,14.80
2023-03-30T17:31:46.019Z,14.80
2023-03-30T17:34:15.040Z,14.70
2023-03-30T17:36:44.317Z,14.60
2023-03-30T17:39:15.025Z,14.60
2023-03-30T17:41:43.734Z,14.50
2023-03-30T17:44:11.931Z,14.50
2023-03-30T17:46:42.998Z,14.40
2023-03-30T17:49:18.082Z,14.40
2023-03-30T17:51:47.269Z,14.30
2023-03-30T17:54:15.686Z,14.20
2023-03-30T17:56:44.221Z,14.10
2023-03-30T17:59:13.551Z,14.00
2023-03-30T18:01:41.873Z,13.90
2023-03-30T18:04:10.545Z,13.90
2023-03-30T18:06:39.365Z,13.80
2023-03-30T18:09:19.266Z,13.70
2023-03-30T18:11:47.460Z,13.60
2023-03-30T18:14:16.382Z,13.50
2023-03-30T18:16:45.682Z,13.40
2023-03-30T18:19:14.928Z,13.30
2023-03-30T18:21:42.975Z,13.20
2023-03-30T18:24:11.137Z,13.20
2023-03-30T18:26:41.804Z,13.10
2023-03-30T18:29:20.311Z,13.10
2023-03-30T18:31:49.570Z,13.00
2023-03-30T18:34:19.929Z,12.90
2023-03-30T18:36:48.308Z,12.90
2023-03-30T18:39:21.918Z,12.80
2023-03-30T18:41:50.841Z,12.70
2023-03-30T18:44:19.169Z,12.60
2023-03-30T18:46:51.795Z,12.60
2023-03-30T18:49:23.025Z,12.50
2023-03-30T18:51:51.979Z,12.40
2023-03-30T18:54:20.707Z,12.30
2023-03-30T18:56:49.967Z,12.30
2023-03-30T19:02:15.122Z,12.10
2023-03-30T19:04:43.333Z,12.10
2023-03-30T19:07:12.142Z,12.10
2023-03-30T19:09:43.323Z,12.10
2023-03-30T19:12:36.179Z,12.00
2023-03-30T19:15:06.645Z,12.00
2023-03-30T19:17:35.185Z,11.90
2023-03-30T19:20:06.550Z,11.90
2023-03-30T19:22:34.757Z,11.90
2023-03-30T19:25:04.727Z,11.80
2023-03-30T19:27:33.363Z,11.80
2023-03-30T19:30:01.796Z,11.80
2023-03-30T19:32:33.618Z,11.80
2023-03-30T19:35:02.340Z,11.70
2023-03-30T19:37:31.194Z,11.70
2023-03-30T19:39:59.307Z,11.70
2023-03-30T19:42:29.694Z,11.70
2023-03-30T19:44:58.808Z,11.70
2023-03-30T19:47:29.254Z,11.70
2023-03-30T19:49:58.767Z,11.70
2023-03-30T19:52:27.180Z,11.60
2023-03-30T19:54:55.450Z,11.60
2023-03-30T19:57:24.111Z,11.50
2023-03-30T19:59:53.041Z,11.50
2023-03-30T20:02:22.540Z,11.50
2023-03-30T20:04:50.685Z,11.40
2023-03-30T20:07:19.967Z,11.40
2023-03-30T20:09:48.976Z,11.40
2023-03-30T20:12:17.731Z,11.40
2023-03-30T20:14:46.186Z,11.40
2023-03-30T20:17:14.782Z,11.40
2023-03-30T20:19:43.229Z,11.40
2023-03-30T20:22:11.837Z,11.30
2023-03-30T20:24:41.729Z,11.30
2023-03-30T20:27:11.526Z,11.30
2023-03-30T20:29:40.203Z,11.30
2023-03-30T20:32:09.508Z,11.30
2023-03-30T20:34:37.600Z,11.30
2023-03-30T20:37:06.249Z,11.30
2023-03-30T20:39:37.551Z,11.30
2023-03-30T20:42:08.644Z,11.30
2023-03-30T20:44:40.849Z,11.20
2023-03-30T20:47:11.164Z,11.20
2023-03-30T20:49:41.979Z,11.20
2023-03-30T20:52:11.009Z,11.20
2023-03-30T20:54:41.158Z,11.20
2023-03-30T20:57:09.808Z,11.10
2023-03-30T20:59:39.726Z,11.00
2023-03-30T21:02:08.475Z,10.90
2023-03-30T21:04:36.690Z,10.70
2023-03-30T21:07:05.949Z,10.60
2023-03-30T21:09:34.576Z,10.60
2023-03-30T21:12:03.827Z,10.50
2023-03-30T21:14:32.936Z,10.60
2023-03-30T21:17:01.098Z,10.60
2023-03-30T21:19:30.046Z,10.50
2023-03-30T21:22:00.446Z,10.30
2023-03-30T21:24:29.268Z,10.20
2023-03-30T21:26:57.871Z,10.20
2023-03-30T21:29:26.563Z,10.30
2023-03-30T21:31:54.765Z,10.20
2023-03-30T21:34:22.820Z,10.20
2023-03-30T21:36:50.924Z,10.20
2023-03-30T21:39:19.713Z,10.30
2023-03-30T21:41:48.628Z,10.40
2023-03-30T21:44:17.220Z,10.50
2023-03-30T21:46:45.935Z,10.60
2023-03-30T21:49:14.416Z,10.70
2023-03-30T21:51:42.911Z,10.80
2023-03-30T21:54:11.644Z,10.80
2023-03-30T21:56:40.206Z,10.90
2023-03-30T21:59:10.166Z,10.90
2023-03-30T22:01:42.724Z,10.90
2023-03-30T22:04:11.477Z,10.90
2023-03-30T22:06:40.439Z,11.00
2023-03-30T22:09:08.866Z,11.00
2023-03-30T22:11:37.833Z,11.00
2023-03-30T22:14:06.345Z,10.90
2023-03-30T22:16:37.096Z,11.00
2023-03-30T22:19:05.791Z,11.00
2023-03-30T22:21:34.928Z,11.00
2023-03-30T22:24:05.839Z,11.10
2023-03-30T22:26:35.712Z,11.10
2023-03-30T22:29:05.039Z,11.10
2023-03-30T22:31:33.686Z,11.10
2023-03-30T22:34:02.756Z,11.10
2023-03-30T22:36:31.576Z,11.10
2023-03-30T22:39:01.337Z,11.10
2023-03-30T22:41:31.163Z,11.10
2023-03-30T22:44:00.109Z,11.10
2023-03-30T22:46:28.732Z,11.10
2023-03-30T22:48:57.317Z,11.10
2023-03-30T22:51:28.878Z,11.20
2023-03-30T22:54:00.680Z,11.20
2023-03-30T22:56:30.162Z,11.10
2023-03-30T22:59:01.172Z,11.10
2023-03-30T23:01:32.668Z,11.00
2023-03-30T23:04:01.872Z,10.90
2023-03-30T23:06:31.319Z,10.80
2023-03-30T23:09:01.706Z,10.70
2023-03-30T23:11:31.853Z,10.60
2023-03-30T23:14:06.662Z,10.50
2023-03-30T23:16:36.176Z,10.50
2023-03-30T23:19:06.045Z,10.50
2023-03-30T23:21:34.483Z,10.50
2023-03-30T23:24:05.208Z,10.50
2023-03-30T23:26:34.318Z,10.50
2023-03-30T23:29:03.036Z,10.60
2023-03-30T23:31:32.928Z,10.50
2023-03-30T23:34:01.482Z,10.60
2023-03-30T23:36:30.820Z,10.60
2023-03-30T23:38:59.297Z,10.50
2023-03-30T23:41:29.161Z,10.60
2023-03-30T23:43:58.316Z,10.50
2023-03-30T23:46:26.415Z,10.50
2023-03-30T23:48:55.319Z,10.50
2023-03-30T23:51:23.446Z,10.50
2023-03-30T23:53:54.632Z,10.50
2023-03-30T23:56:49.070Z,10.60
2023-03-30T23:59:17.920Z,10.60
